createdAt,value
2022-10-13T00:00:43.371Z,12.04
2022-10-13T00:03:10.788Z,12.16
2022-10-13T00:05:42.229Z,12.09
2022-10-13T00:08:09.775Z,11.91
2022-10-13T00:10:42.492Z,11.89
2022-10-13T00:13:12.138Z,11.89
2022-10-13T00:15:40.049Z,11.82
2022-10-13T00:18:07.550Z,11.77
2022-10-13T00:20:35.272Z,11.91
2022-10-13T00:23:02.529Z,11.77
2022-10-13T00:25:29.823Z,11.85
2022-10-13T00:27:57.113Z,11.73
2022-10-13T00:30:36.552Z,11.65
2022-10-13T00:33:03.893Z,11.64
2022-10-13T00:35:31.105Z,11.71
2022-10-13T00:37:58.476Z,11.94
2022-10-13T00:40:30.357Z,12.12
2022-10-13T00:42:57.647Z,12.06
2022-10-13T00:45:26.458Z,12.16
2022-10-13T00:47:58.230Z,12.16
2022-10-13T00:50:36.074Z,11.81
2022-10-13T00:53:05.935Z,11.58
2022-10-13T00:55:35.082Z,11.56
2022-10-13T00:58:05.546Z,11.67
2022-10-13T01:00:33.498Z,11.79
2022-10-13T01:03:01.703Z,11.67
2022-10-13T01:05:29.038Z,11.51
2022-10-13T01:07:56.219Z,11.36
2022-10-13T01:10:29.526Z,11.33
2022-10-13T01:13:04.123Z,11.36
2022-10-13T01:15:40.789Z,11.26
2022-10-13T01:18:10.599Z,11.19
2022-10-13T01:20:49.357Z,11.10
2022-10-13T01:23:31.799Z,11.12
2022-10-13T01:26:18.589Z,11.40
2022-10-13T01:29:02.466Z,11.33
2022-10-13T01:31:29.752Z,11.41
2022-10-13T01:34:17.711Z,11.41
2022-10-13T01:36:55.100Z,11.56
2022-10-13T01:39:52.978Z,11.38
2022-10-13T01:42:24.881Z,11.20
2022-10-13T01:44:53.573Z,11.09
2022-10-13T01:47:20.770Z,10.99
2022-10-13T01:49:50.907Z,10.95
2022-10-13T01:52:19.146Z,11.20
2022-10-13T01:54:51.247Z,11.30
2022-10-13T01:57:35.521Z,11.12
2022-10-13T02:00:12.971Z,10.96
2022-10-13T02:02:48.491Z,10.85
2022-10-13T02:05:37.939Z,11.02
2022-10-13T02:08:10.745Z,11.06
2022-10-13T02:10:45.036Z,11.09
2022-10-13T02:13:13.134Z,11.19
2022-10-13T02:15:41.936Z,11.26
2022-10-13T02:18:09.894Z,10.95
2022-10-13T02:20:37.117Z,10.96
2022-10-13T02:23:09.352Z,11.22
2022-10-13T02:25:36.798Z,11.20
2022-10-13T02:28:04.194Z,11.12
2022-10-13T02:30:35.689Z,11.09
2022-10-13T02:33:03.277Z,11.02
2022-10-13T02:35:31.161Z,11.15
2022-10-13T02:38:02.596Z,10.83
2022-10-13T02:40:30.069Z,10.59
2022-10-13T02:42:57.309Z,10.42
2022-10-13T02:45:24.629Z,10.37
2022-10-13T02:47:56.118Z,10.22
2022-10-13T02:50:23.378Z,10.25
2022-10-13T02:52:50.960Z,10.13
2022-10-13T02:55:18.297Z,10.14
2022-10-13T02:57:46.419Z,9.87
2022-10-13T03:00:14.436Z,9.90
2022-10-13T03:02:42.310Z,9.78
2022-10-13T03:05:09.828Z,9.65
2022-10-13T03:07:37.091Z,9.58
2022-10-13T03:10:05.206Z,9.82
2022-10-13T03:12:32.449Z,9.82
2022-10-13T03:14:59.731Z,9.91
2022-10-13T03:17:27.483Z,10.00
2022-10-13T03:19:54.782Z,10.04
2022-10-13T03:22:22.363Z,10.16
2022-10-13T03:24:52.571Z,10.31
2022-10-13T03:27:19.893Z,10.30
2022-10-13T03:29:47.106Z,10.38
2022-10-13T03:32:14.590Z,10.41
2022-10-13T03:34:41.784Z,10.45
2022-10-13T03:37:09.226Z,10.18
2022-10-13T03:39:42.227Z,9.96
2022-10-13T03:42:10.986Z,9.94
2022-10-13T03:44:39.739Z,9.86
2022-10-13T03:47:07.088Z,9.70
2022-10-13T03:49:34.545Z,9.66
2022-10-13T03:52:01.991Z,9.78
2022-10-13T03:54:29.244Z,9.76
2022-10-13T03:56:57.768Z,9.85
2022-10-13T03:59:24.999Z,9.87
2022-10-13T04:01:52.381Z,9.85
2022-10-13T04:04:19.639Z,10.03
2022-10-13T04:06:47.630Z,9.90
2022-10-13T04:09:14.843Z,9.97
2022-10-13T04:11:42.149Z,9.97
2022-10-13T04:14:09.394Z,9.78
2022-10-13T04:16:36.676Z,9.86
2022-10-13T04:19:05.466Z,9.94
2022-10-13T04:21:36.223Z,10.11
2022-10-13T04:24:03.849Z,10.07
2022-10-13T04:26:32.687Z,10.14
2022-10-13T04:29:07.604Z,10.18
2022-10-13T04:31:35.276Z,10.14
2022-10-13T04:34:02.562Z,10.22
2022-10-13T04:36:30.084Z,10.37
2022-10-13T04:38:57.432Z,10.30
2022-10-13T04:41:25.923Z,10.28
2022-10-13T04:43:53.541Z,10.03
2022-10-13T04:46:23.480Z,10.16
2022-10-13T04:48:51.791Z,10.13
2022-10-13T04:51:23.576Z,10.09
2022-10-13T04:53:55.866Z,10.11
2022-10-13T04:56:23.465Z,10.17
2022-10-13T04:58:50.993Z,10.18
2022-10-13T05:01:22.193Z,10.04
2022-10-13T05:03:57.690Z,9.96
2022-10-13T05:06:26.550Z,10.06
2022-10-13T05:08:56.384Z,9.96
2022-10-13T05:11:24.486Z,9.82
2022-10-13T05:13:52.330Z,9.85
2022-10-13T05:16:21.176Z,10.03
2022-10-13T05:18:49.372Z,10.09
2022-10-13T05:21:21.249Z,10.17
2022-10-13T05:23:49.201Z,10.28
2022-10-13T05:26:20.634Z,10.38
2022-10-13T05:28:50.131Z,10.59
2022-10-13T05:31:22.664Z,10.61
2022-10-13T05:33:54.205Z,10.71
2022-10-13T05:36:26.845Z,10.88
2022-10-13T05:38:55.713Z,10.69
2022-10-13T05:41:23.747Z,10.71
2022-10-13T05:44:02.361Z,10.85
2022-10-13T05:46:29.845Z,10.95
2022-10-13T05:48:58.055Z,10.98
2022-10-13T05:51:28.845Z,10.85
2022-10-13T05:54:22.085Z,10.71
2022-10-13T05:57:00.860Z,10.73
2022-10-13T05:59:30.734Z,10.71
2022-10-13T06:01:58.847Z,10.75
2022-10-13T06:04:31.082Z,10.58
2022-10-13T06:06:59.193Z,10.65
2022-10-13T06:09:29.278Z,10.65
2022-10-13T06:11:57.182Z,10.76
2022-10-13T06:14:24.660Z,10.64
2022-10-13T06:16:54.851Z,10.69
2022-10-13T06:19:22.861Z,10.82
2022-10-13T06:21:50.430Z,10.99
2022-10-13T06:24:18.724Z,11.33
2022-10-13T06:26:46.877Z,11.56
2022-10-13T06:29:14.470Z,11.43
2022-10-13T06:31:41.924Z,11.48
2022-10-13T06:34:10.519Z,11.48
2022-10-13T06:36:38.741Z,11.50
2022-10-13T06:39:05.987Z,11.68
2022-10-13T06:41:33.713Z,11.75
2022-10-13T06:44:04.213Z,11.82
2022-10-13T06:46:32.195Z,11.87
2022-10-13T06:48:59.814Z,11.91
2022-10-13T06:51:27.674Z,11.96
2022-10-13T06:53:58.261Z,11.82
2022-10-13T06:56:28.023Z,12.12
2022-10-13T06:58:59.346Z,12.32
2022-10-13T07:01:27.177Z,12.35
2022-10-13T07:03:55.628Z,12.76
2022-10-13T07:06:35.562Z,12.95
2022-10-13T07:09:08.459Z,13.22
2022-10-13T07:11:37.142Z,13.77
2022-10-13T07:14:05.261Z,14.22
2022-10-13T07:16:33.059Z,15.02
2022-10-13T07:19:03.159Z,15.89
2022-10-13T07:21:30.819Z,16.53
2022-10-13T07:23:58.472Z,16.76
2022-10-13T07:26:28.605Z,17.32
2022-10-13T07:28:56.405Z,17.61
2022-10-13T07:31:24.685Z,17.34
2022-10-13T07:33:53.025Z,17.31
2022-10-13T07:36:27.792Z,17.66
2022-10-13T07:38:55.974Z,17.97
2022-10-13T07:41:23.681Z,17.57
2022-10-13T07:43:58.216Z,17.22
2022-10-13T07:46:26.171Z,17.57
2022-10-13T07:48:54.394Z,17.43
2022-10-13T07:51:22.054Z,17.32
2022-10-13T07:53:49.505Z,17.31
2022-10-13T07:56:17.104Z,17.49
2022-10-13T07:58:46.130Z,17.21
2022-10-13T08:01:14.578Z,17.28
2022-10-13T08:03:45.563Z,16.95
2022-10-13T08:06:18.997Z,16.23
2022-10-13T08:08:46.379Z,15.20
2022-10-13T08:11:17.503Z,14.98
2022-10-13T08:13:50.366Z,15.03
2022-10-13T08:16:26.936Z,15.00
2022-10-13T08:18:55.023Z,14.96
2022-10-13T08:24:15.523Z,15.00
2022-10-13T08:26:43.327Z,15.06
2022-10-13T08:29:26.327Z,15.10
2022-10-13T08:31:54.397Z,15.40
2022-10-13T08:34:25.147Z,15.38
2022-10-13T08:36:54.638Z,15.61
2022-10-13T08:39:23.084Z,15.69
2022-10-13T08:41:50.676Z,15.88
2022-10-13T08:45:15.697Z,15.99
2022-10-13T08:47:48.465Z,16.04
2022-10-13T08:50:22.466Z,16.04
2022-10-13T08:52:54.545Z,16.20
2022-10-13T08:55:44.490Z,16.13
2022-10-13T08:58:29.473Z,16.30
2022-10-13T09:01:09.752Z,16.23
2022-10-13T09:04:08.733Z,16.56
2022-10-13T09:06:49.282Z,16.67
2022-10-13T09:09:18.142Z,16.66
2022-10-13T09:11:52.161Z,16.74
2022-10-13T09:14:31.530Z,16.92
2022-10-13T09:17:22.452Z,16.74
2022-10-13T09:20:21.156Z,16.91
2022-10-13T09:23:12.541Z,16.81
2022-10-13T09:25:42.063Z,16.80
2022-10-13T09:28:14.892Z,16.85
2022-10-13T09:30:44.415Z,17.01
2022-10-13T09:33:12.281Z,17.10
2022-10-13T09:35:40.473Z,17.22
2022-10-13T09:38:21.721Z,17.32
2022-10-13T09:41:04.853Z,17.26
2022-10-13T09:43:33.900Z,17.22
2022-10-13T09:46:02.319Z,17.19
2022-10-13T09:48:31.707Z,17.36
2022-10-13T09:51:00.099Z,17.50
2022-10-13T09:53:40.870Z,17.73
2022-10-13T09:56:19.909Z,17.77
2022-10-13T09:59:02.288Z,17.87
2022-10-13T10:01:34.222Z,17.56
2022-10-13T10:04:04.959Z,17.52
2022-10-13T10:06:33.389Z,17.89
2022-10-13T10:09:44.208Z,17.76
2022-10-13T10:12:30.365Z,18.08
2022-10-13T10:14:58.226Z,17.69
2022-10-13T10:17:28.696Z,18.03
2022-10-13T10:20:01.012Z,18.04
2022-10-13T10:22:42.875Z,17.76
2022-10-13T10:25:30.346Z,17.94
2022-10-13T10:28:09.922Z,17.94
2022-10-13T10:30:41.739Z,18.03
2022-10-13T10:33:14.785Z,17.87
2022-10-13T10:35:53.231Z,18.04
2022-10-13T10:39:00.295Z,18.37
2022-10-13T10:41:43.366Z,18.76
2022-10-13T10:44:13.359Z,18.62
2022-10-13T10:46:51.874Z,18.98
2022-10-13T10:49:33.076Z,18.69
2022-10-13T10:52:01.748Z,18.72
2022-10-13T10:54:35.426Z,18.37
2022-10-13T10:57:36.729Z,18.34
2022-10-13T11:00:21.329Z,18.42
2022-10-13T11:03:12.147Z,18.53
2022-10-13T11:06:25.149Z,18.72
2022-10-13T11:08:55.783Z,18.90
2022-10-13T11:11:25.101Z,19.11
2022-10-13T11:14:01.215Z,18.76
2022-10-13T11:16:39.562Z,19.07
2022-10-13T11:19:32.778Z,19.11
2022-10-13T11:22:00.447Z,19.17
2022-10-13T11:24:39.818Z,19.50
2022-10-13T11:27:16.468Z,19.46
2022-10-13T11:29:47.184Z,19.65
2022-10-13T11:32:35.845Z,19.68
2022-10-13T11:35:06.864Z,19.44
2022-10-13T11:38:08.767Z,19.54
2022-10-13T11:41:10.928Z,19.74
2022-10-13T11:43:46.807Z,19.48
2022-10-13T11:46:29.206Z,19.46
2022-10-13T11:49:03.046Z,19.00
2022-10-13T11:51:41.790Z,18.66
2022-10-13T11:54:13.712Z,18.61
2022-10-13T11:56:55.792Z,18.30
2022-10-13T11:59:34.155Z,18.28
2022-10-13T12:02:10.937Z,18.32
2022-10-13T12:04:42.787Z,18.21
2022-10-13T12:07:15.266Z,18.28
2022-10-13T12:09:53.381Z,18.71
2022-10-13T12:12:23.513Z,18.63
2022-10-13T12:14:55.262Z,18.62
2022-10-13T12:17:26.887Z,18.85
2022-10-13T12:19:56.240Z,18.42
2022-10-13T12:22:24.212Z,18.44
2022-10-13T12:24:58.842Z,18.49
2022-10-13T12:27:27.844Z,18.86
2022-10-13T12:29:55.824Z,18.73
2022-10-13T12:32:28.903Z,18.53
2022-10-13T12:34:56.928Z,18.62
2022-10-13T12:37:33.654Z,18.71
2022-10-13T12:40:01.414Z,18.88
2022-10-13T12:42:30.761Z,18.90
2022-10-13T12:44:58.736Z,18.99
2022-10-13T12:47:58.591Z,18.63
2022-10-13T12:50:27.639Z,18.56
2022-10-13T12:52:54.880Z,19.00
2022-10-13T12:55:22.751Z,19.33
2022-10-13T12:57:50.586Z,19.33
2022-10-13T13:00:21.357Z,19.61
2022-10-13T13:02:59.609Z,19.20
2022-10-13T13:05:33.771Z,19.04
2022-10-13T13:08:05.148Z,18.90
2022-10-13T13:10:32.623Z,18.63
2022-10-13T13:13:13.904Z,18.66
2022-10-13T13:15:41.896Z,18.73
2022-10-13T13:18:41.719Z,19.02
2022-10-13T13:21:11.299Z,19.14
2022-10-13T13:23:42.841Z,19.37
2022-10-13T13:26:15.672Z,19.47
2022-10-13T13:28:48.018Z,19.69
2022-10-13T13:31:17.056Z,19.71
2022-10-13T13:33:44.666Z,19.71
2022-10-13T13:36:19.171Z,19.44
2022-10-13T13:38:48.186Z,19.40
2022-10-13T13:41:15.771Z,19.27
2022-10-13T13:43:43.369Z,19.38
2022-10-13T13:46:17.082Z,19.24
2022-10-13T13:48:44.555Z,19.31
2022-10-13T13:51:11.842Z,19.53
2022-10-13T13:53:39.552Z,19.72
2022-10-13T13:56:15.217Z,19.93
2022-10-13T13:58:43.264Z,19.93
2022-10-13T14:01:11.163Z,20.13
2022-10-13T14:03:38.970Z,19.96
2022-10-13T14:06:08.410Z,19.92
2022-10-13T14:08:42.427Z,20.09
2022-10-13T14:11:10.566Z,19.82
2022-10-13T14:13:37.813Z,19.48
2022-10-13T14:16:05.461Z,19.31
2022-10-13T14:18:32.757Z,19.33
2022-10-13T14:21:00.093Z,19.40
2022-10-13T14:23:27.565Z,19.23
2022-10-13T14:25:54.907Z,19.21
2022-10-13T14:28:22.969Z,19.06
2022-10-13T14:30:50.429Z,18.85
2022-10-13T14:33:19.830Z,18.95
2022-10-13T14:35:47.304Z,19.03
2022-10-13T14:38:16.943Z,18.85
2022-10-13T14:40:44.873Z,18.99
2022-10-13T14:43:12.282Z,18.95
2022-10-13T14:45:39.884Z,18.93
2022-10-13T14:48:11.895Z,19.00
2022-10-13T14:50:39.218Z,18.79
2022-10-13T14:53:06.595Z,18.85
2022-10-13T14:55:33.977Z,18.75
2022-10-13T14:58:01.372Z,18.88
2022-10-13T15:00:28.948Z,18.68
2022-10-13T15:02:56.204Z,18.77
2022-10-13T15:05:26.114Z,18.69
2022-10-13T15:07:53.569Z,18.68
2022-10-13T15:10:20.794Z,18.71
2022-10-13T15:12:48.194Z,18.69
2022-10-13T15:15:15.473Z,18.62
2022-10-13T15:17:42.833Z,18.44
2022-10-13T15:20:10.616Z,18.40
2022-10-13T15:22:38.387Z,18.38
2022-10-13T15:25:10.556Z,18.40
2022-10-13T15:27:42.007Z,18.34
2022-10-13T15:30:10.060Z,18.14
2022-10-13T15:32:37.568Z,18.04
2022-10-13T15:35:06.478Z,17.91
2022-10-13T15:37:34.416Z,17.96
2022-10-13T15:40:01.821Z,17.70
2022-10-13T15:42:29.207Z,17.80
2022-10-13T15:45:09.324Z,17.80
2022-10-13T15:47:37.224Z,17.79
2022-10-13T15:50:04.926Z,17.76
2022-10-13T15:52:35.084Z,17.70
2022-10-13T15:55:02.560Z,17.67
2022-10-13T15:57:31.097Z,17.66
2022-10-13T15:59:58.478Z,17.62
2022-10-13T16:02:25.862Z,17.49
2022-10-13T16:04:53.431Z,17.40
2022-10-13T16:07:20.751Z,17.43
2022-10-13T16:09:48.233Z,17.32
2022-10-13T16:12:15.597Z,17.29
2022-10-13T16:14:43.289Z,17.19
2022-10-13T16:17:11.828Z,17.24
2022-10-13T16:19:39.828Z,17.03
2022-10-13T16:22:08.201Z,16.98
2022-10-13T16:24:37.622Z,16.94
2022-10-13T16:27:06.683Z,16.89
2022-10-13T16:29:34.424Z,16.71
2022-10-13T16:32:02.136Z,16.52
2022-10-13T16:34:29.552Z,16.45
2022-10-13T16:36:56.875Z,16.53
2022-10-13T16:39:24.936Z,16.25
2022-10-13T16:41:52.344Z,16.26
2022-10-13T16:44:23.029Z,16.45
2022-10-13T16:46:52.447Z,16.27
2022-10-13T16:49:19.782Z,16.13
2022-10-13T16:51:47.095Z,16.09
2022-10-13T16:54:14.418Z,16.23
2022-10-13T16:56:41.946Z,16.06
2022-10-13T16:59:10.161Z,16.13
2022-10-13T17:01:37.826Z,16.22
2022-10-13T17:04:05.255Z,16.27
2022-10-13T17:06:32.730Z,16.13
2022-10-13T17:09:00.546Z,15.99
2022-10-13T17:11:30.060Z,16.05
2022-10-13T17:13:57.987Z,15.87
2022-10-13T17:16:25.473Z,15.61
2022-10-13T17:18:53.337Z,15.65
2022-10-13T17:21:22.288Z,15.67
2022-10-13T17:23:49.770Z,15.47
2022-10-13T17:26:17.816Z,15.60
2022-10-13T17:28:45.339Z,15.62
2022-10-13T17:31:14.822Z,15.61
2022-10-13T17:33:42.353Z,15.67
2022-10-13T17:36:17.698Z,15.60
2022-10-13T17:38:45.253Z,15.64
2022-10-13T17:41:12.705Z,15.61
2022-10-13T17:43:49.864Z,15.53
2022-10-13T17:46:35.582Z,15.36
2022-10-13T17:49:03.941Z,15.37
2022-10-13T17:51:31.210Z,15.37
2022-10-13T17:53:59.000Z,15.53
2022-10-13T17:56:26.473Z,15.51
2022-10-13T17:58:54.080Z,15.38
2022-10-13T18:01:32.428Z,15.02
2022-10-13T18:04:08.856Z,14.89
2022-10-13T18:06:40.084Z,14.86
2022-10-13T18:09:08.938Z,15.07
2022-10-13T18:11:36.342Z,14.82
2022-10-13T18:14:03.874Z,14.93
2022-10-13T18:16:31.189Z,14.71
2022-10-13T18:18:58.626Z,14.68
2022-10-13T18:21:29.394Z,14.68
2022-10-13T18:23:58.026Z,14.55
2022-10-13T18:26:25.686Z,14.45
2022-10-13T18:28:53.167Z,14.27
2022-10-13T18:31:23.321Z,14.22
2022-10-13T18:33:58.710Z,14.20
2022-10-13T18:36:31.014Z,14.34
2022-10-13T18:39:05.479Z,14.55
2022-10-13T18:41:32.872Z,14.68
2022-10-13T18:44:00.505Z,14.79
2022-10-13T18:46:27.927Z,14.89
2022-10-13T18:48:55.371Z,14.82
2022-10-13T18:51:22.664Z,14.80
2022-10-13T18:53:52.884Z,14.65
2022-10-13T18:56:26.256Z,14.59
2022-10-13T18:58:59.290Z,14.44
2022-10-13T19:01:28.723Z,14.32
2022-10-13T19:03:56.067Z,14.41
2022-10-13T19:06:27.720Z,14.38
2022-10-13T19:09:00.851Z,14.38
2022-10-13T19:11:28.488Z,14.41
2022-10-13T19:13:55.777Z,14.32
2022-10-13T19:16:23.867Z,14.13
2022-10-13T19:18:51.197Z,14.00
2022-10-13T19:21:19.127Z,14.03
2022-10-13T19:23:46.574Z,14.00
2022-10-13T19:26:21.160Z,13.89
2022-10-13T19:28:48.481Z,13.99
2022-10-13T19:31:20.664Z,14.07
2022-10-13T19:33:50.420Z,13.97
2022-10-13T19:36:27.921Z,13.91
2022-10-13T19:38:57.343Z,14.04
2022-10-13T19:41:24.924Z,13.99
2022-10-13T19:43:52.188Z,13.69
2022-10-13T19:46:21.699Z,13.52
2022-10-13T19:48:49.056Z,13.55
2022-10-13T19:51:16.326Z,13.55
2022-10-13T19:53:43.757Z,13.51
2022-10-13T19:56:23.310Z,13.43
2022-10-13T19:58:51.316Z,13.48
2022-10-13T20:01:20.019Z,13.58
2022-10-13T20:03:47.506Z,13.70
2022-10-13T20:06:14.886Z,13.72
2022-10-13T20:08:42.451Z,13.55
2022-10-13T20:11:10.610Z,13.34
2022-10-13T20:13:38.037Z,13.26
2022-10-13T20:16:10.111Z,13.24
2022-10-13T20:18:37.767Z,13.15
2022-10-13T20:21:05.731Z,13.08
2022-10-13T20:23:33.184Z,12.97
2022-10-13T20:26:11.212Z,13.01
2022-10-13T20:28:43.179Z,13.21
2022-10-13T20:31:12.928Z,13.36
2022-10-13T20:33:40.394Z,13.42
2022-10-13T20:36:12.399Z,13.34
2022-10-13T20:38:39.854Z,13.15
2022-10-13T20:41:08.839Z,13.15
2022-10-13T20:43:37.058Z,12.83
2022-10-13T20:46:06.214Z,12.47
2022-10-13T20:48:51.475Z,12.61
2022-10-13T20:51:22.809Z,12.60
2022-10-13T20:53:50.034Z,12.53
2022-10-13T20:56:22.113Z,12.77
2022-10-13T20:58:49.674Z,12.84
2022-10-13T21:01:17.676Z,12.90
2022-10-13T21:03:45.203Z,12.84
2022-10-13T21:06:13.529Z,12.81
2022-10-13T21:08:40.964Z,12.83
2022-10-13T21:11:10.119Z,12.83
2022-10-13T21:13:38.399Z,12.80
2022-10-13T21:16:08.432Z,12.70
2022-10-13T21:18:35.846Z,12.73
2022-10-13T21:21:07.966Z,12.87
2022-10-13T21:23:35.495Z,12.73
2022-10-13T21:26:03.868Z,12.60
2022-10-13T21:28:31.532Z,12.59
2022-10-13T21:31:11.545Z,12.46
2022-10-13T21:33:39.185Z,12.36
2022-10-13T21:36:13.760Z,12.39
2022-10-13T21:38:41.662Z,12.42
2022-10-13T21:41:10.254Z,12.53
2022-10-13T21:43:37.637Z,12.53
2022-10-13T21:46:18.179Z,12.63
2022-10-13T21:48:45.981Z,12.84
2022-10-13T21:51:21.389Z,12.91
2022-10-13T21:53:52.831Z,12.80
2022-10-13T21:56:20.357Z,12.57
2022-10-13T21:58:49.062Z,12.54
2022-10-13T22:01:17.116Z,12.68
2022-10-13T22:03:44.472Z,12.63
2022-10-13T22:06:17.637Z,12.56
2022-10-13T22:08:47.012Z,12.68
2022-10-13T22:11:24.680Z,12.81
2022-10-13T22:13:52.111Z,12.84
2022-10-13T22:16:23.936Z,12.87
2022-10-13T22:18:52.307Z,12.80
2022-10-13T22:21:25.052Z,12.53
2022-10-13T22:23:55.185Z,12.28
2022-10-13T22:26:22.496Z,12.30
2022-10-13T22:28:51.765Z,12.42
2022-10-13T22:31:19.318Z,12.33
2022-10-13T22:33:46.545Z,12.18
2022-10-13T22:36:18.255Z,12.02
2022-10-13T22:38:46.008Z,12.06
2022-10-13T22:41:14.707Z,12.14
2022-10-13T22:43:44.231Z,12.08
2022-10-13T22:46:15.607Z,12.06
2022-10-13T22:48:43.172Z,12.01
2022-10-13T22:51:14.191Z,12.09
2022-10-13T22:53:41.705Z,12.08
2022-10-13T22:56:09.827Z,11.92
2022-10-13T22:58:37.375Z,12.08
2022-10-13T23:01:14.849Z,12.18
2022-10-13T23:03:42.314Z,12.39
2022-10-13T23:06:13.162Z,12.46
2022-10-13T23:08:40.951Z,12.22
2022-10-13T23:11:08.229Z,12.01
2022-10-13T23:13:35.738Z,12.01
2022-10-13T23:16:03.606Z,11.79
2022-10-13T23:18:35.073Z,11.68
2022-10-13T23:21:10.439Z,11.61
2022-10-13T23:23:37.885Z,11.57
2022-10-13T23:26:06.279Z,11.60
2022-10-13T23:28:33.870Z,11.67
2022-10-13T23:31:11.558Z,11.70
2022-10-13T23:33:38.876Z,11.78
2022-10-13T23:36:06.845Z,11.77
2022-10-13T23:38:34.275Z,11.68
2022-10-13T23:41:12.111Z,11.54
2022-10-13T23:43:40.878Z,11.51
2022-10-13T23:46:08.160Z,11.51
2022-10-13T23:48:35.519Z,11.60
2022-10-13T23:51:07.784Z,11.61
2022-10-13T23:53:36.372Z,11.63
2022-10-13T23:56:04.688Z,11.79
2022-10-13T23:58:32.284Z,11.82
